sensor_id;sensor_type;location;lat;lon;timestamp;P1;durP1;ratioP1;P2;durP2;ratioP2
20443;SDS011;10381;53.730;10.010;2022-09-01T00:00:56;8.25;;;7.45;;
20443;SDS011;10381;53.730;10.010;2022-09-01T00:04:56;16.03;;;7.27;;
20443;SDS011;10381;53.730;10.010;2022-09-01T00:08:58;12.82;;;8.38;;
20443;SDS011;10381;53.730;10.010;2022-09-01T00:13:00;10.13;;;7.90;;
20443;SDS011;10381;53.730;10.010;2022-09-01T00:17:03;9.57;;;8.68;;
20443;SDS011;10381;53.730;10.010;2022-09-01T00:21:05;9.15;;;8.35;;
20443;SDS011;10381;53.730;10.010;2022-09-01T00:25:06;10.00;;;8.48;;
20443;SDS011;10381;53.730;10.010;2022-09-01T00:29:07;10.15;;;8.90;;
20443;SDS011;10381;53.730;10.010;2022-09-01T00:33:07;9.10;;;8.30;;
20443;SDS011;10381;53.730;10.010;2022-09-01T00:37:08;8.80;;;8.00;;
20443;SDS011;10381;53.730;10.010;2022-09-01T00:41:08;10.60;;;9.50;;
20443;SDS011;10381;53.730;10.010;2022-09-01T00:45:09;9.32;;;8.43;;
20443;SDS011;10381;53.730;10.010;2022-09-01T00:49:11;9.43;;;8.52;;
20443;SDS011;10381;53.730;10.010;2022-09-01T00:53:15;10.13;;;9.13;;
20443;SDS011;10381;53.730;10.010;2022-09-01T00:57:15;9.70;;;8.73;;
20443;SDS011;10381;53.730;10.010;2022-09-01T01:01:16;8.75;;;7.95;;
20443;SDS011;10381;53.730;10.010;2022-09-01T01:05:16;23.20;;;8.45;;
20443;SDS011;10381;53.730;10.010;2022-09-01T01:09:17;10.75;;;8.82;;
20443;SDS011;10381;53.730;10.010;2022-09-01T01:13:20;9.32;;;8.32;;
20443;SDS011;10381;53.730;10.010;2022-09-01T01:17:23;9.50;;;8.60;;
20443;SDS011;10381;53.730;10.010;2022-09-01T01:21:24;10.55;;;8.82;;
20443;SDS011;10381;53.730;10.010;2022-09-01T01:25:54;10.32;;;7.47;;
20443;SDS011;10381;53.730;10.010;2022-09-01T01:29:56;10.88;;;8.02;;
20443;SDS011;10381;53.730;10.010;2022-09-01T01:33:57;8.90;;;8.00;;
20443;SDS011;10381;53.730;10.010;2022-09-01T01:37:58;9.32;;;7.72;;
20443;SDS011;10381;53.730;10.010;2022-09-01T01:42:00;8.30;;;7.40;;
20443;SDS011;10381;53.730;10.010;2022-09-01T01:46:01;8.35;;;7.55;;
20443;SDS011;10381;53.730;10.010;2022-09-01T01:50:05;8.40;;;7.57;;
20443;SDS011;10381;53.730;10.010;2022-09-01T01:54:08;8.45;;;7.53;;
20443;SDS011;10381;53.730;10.010;2022-09-01T01:58:08;9.95;;;7.63;;
20443;SDS011;10381;53.730;10.010;2022-09-01T02:02:10;10.98;;;8.32;;
20443;SDS011;10381;53.730;10.010;2022-09-01T02:06:11;8.43;;;7.72;;
20443;SDS011;10381;53.730;10.010;2022-09-01T02:10:12;8.82;;;7.95;;
20443;SDS011;10381;53.730;10.010;2022-09-01T02:14:13;10.80;;;8.10;;
20443;SDS011;10381;53.730;10.010;2022-09-01T02:22:17;8.52;;;7.72;;
20443;SDS011;10381;53.730;10.010;2022-09-01T02:26:20;7.97;;;7.05;;
20443;SDS011;10381;53.730;10.010;2022-09-01T02:30:22;10.30;;;8.73;;
20443;SDS011;10381;53.730;10.010;2022-09-01T02:34:26;14.40;;;9.15;;
20443;SDS011;10381;53.730;10.010;2022-09-01T02:38:28;9.20;;;7.50;;
20443;SDS011;10381;53.730;10.010;2022-09-01T02:42:28;10.90;;;8.32;;
20443;SDS011;10381;53.730;10.010;2022-09-01T02:46:29;10.57;;;7.55;;
20443;SDS011;10381;53.730;10.010;2022-09-01T02:50:29;12.80;;;8.20;;
20443;SDS011;10381;53.730;10.010;2022-09-01T02:54:32;10.40;;;7.65;;
20443;SDS011;10381;53.730;10.010;2022-09-01T02:58:32;9.50;;;7.10;;
20443;SDS011;10381;53.730;10.010;2022-09-01T03:02:33;11.60;;;8.18;;
20443;SDS011;10381;53.730;10.010;2022-09-01T03:06:35;13.88;;;8.38;;
20443;SDS011;10381;53.730;10.010;2022-09-01T03:10:37;10.40;;;7.30;;
20443;SDS011;10381;53.730;10.010;2022-09-01T03:14:40;11.07;;;7.63;;
20443;SDS011;10381;53.730;10.010;2022-09-01T03:18:40;10.93;;;7.77;;
20443;SDS011;10381;53.730;10.010;2022-09-01T03:22:41;10.43;;;7.57;;
20443;SDS011;10381;53.730;10.010;2022-09-01T03:26:43;14.52;;;8.40;;
20443;SDS011;10381;53.730;10.010;2022-09-01T03:30:46;13.77;;;7.97;;
20443;SDS011;10381;53.730;10.010;2022-09-01T03:34:51;10.63;;;8.25;;
20443;SDS011;10381;53.730;10.010;2022-09-01T03:38:52;14.93;;;8.47;;
20443;SDS011;10381;53.730;10.010;2022-09-01T03:42:52;8.90;;;7.22;;
20443;SDS011;10381;53.730;10.010;2022-09-01T03:46:54;12.27;;;8.15;;
20443;SDS011;10381;53.730;10.010;2022-09-01T03:50:56;12.60;;;8.15;;
20443;SDS011;10381;53.730;10.010;2022-09-01T03:55:01;7.78;;;6.97;;
20443;SDS011;10381;53.730;10.010;2022-09-01T03:59:02;8.80;;;7.82;;
20443;SDS011;10381;53.730;10.010;2022-09-01T04:03:03;10.85;;;8.00;;
20443;SDS011;10381;53.730;10.010;2022-09-01T04:07:06;16.17;;;8.38;;
20443;SDS011;10381;53.730;10.010;2022-09-01T04:11:10;12.60;;;8.13;;
20443;SDS011;10381;53.730;10.010;2022-09-01T04:15:17;13.68;;;8.80;;
20443;SDS011;10381;53.730;10.010;2022-09-01T04:19:20;12.25;;;7.80;;
20443;SDS011;10381;53.730;10.010;2022-09-01T04:23:27;13.00;;;8.00;;
20443;SDS011;10381;53.730;10.010;2022-09-01T04:27:32;12.52;;;8.10;;
20443;SDS011;10381;53.730;10.010;2022-09-01T04:31:35;13.32;;;8.55;;
20443;SDS011;10381;53.730;10.010;2022-09-01T04:35:38;18.67;;;8.63;;
20443;SDS011;10381;53.730;10.010;2022-09-01T04:39:39;15.50;;;9.20;;
20443;SDS011;10381;53.730;10.010;2022-09-01T04:43:48;35.33;;;9.43;;
20443;SDS011;10381;53.730;10.010;2022-09-01T04:47:50;20.15;;;8.90;;
20443;SDS011;10381;53.730;10.010;2022-09-01T04:51:51;21.20;;;8.88;;
20443;SDS011;10381;53.730;10.010;2022-09-01T04:55:52;15.55;;;8.50;;
20443;SDS011;10381;53.730;10.010;2022-09-01T04:59:54;28.48;;;9.63;;
20443;SDS011;10381;53.730;10.010;2022-09-01T05:03:55;19.00;;;10.57;;
20443;SDS011;10381;53.730;10.010;2022-09-01T05:07:58;19.02;;;11.45;;
20443;SDS011;10381;53.730;10.010;2022-09-01T05:11:58;18.07;;;13.43;;
20443;SDS011;10381;53.730;10.010;2022-09-01T05:16:10;16.73;;;13.75;;
20443;SDS011;10381;53.730;10.010;2022-09-01T05:20:13;29.77;;;15.70;;
20443;SDS011;10381;53.730;10.010;2022-09-01T05:24:16;17.98;;;15.10;;
20443;SDS011;10381;53.730;10.010;2022-09-01T05:28:19;34.50;;;13.77;;
20443;SDS011;10381;53.730;10.010;2022-09-01T05:32:23;12.65;;;10.63;;
20443;SDS011;10381;53.730;10.010;2022-09-01T05:36:24;12.55;;;8.52;;
20443;SDS011;10381;53.730;10.010;2022-09-01T05:40:25;11.70;;;7.78;;
20443;SDS011;10381;53.730;10.010;2022-09-01T05:44:26;9.32;;;7.38;;
20443;SDS011;10381;53.730;10.010;2022-09-01T05:48:26;11.73;;;7.10;;
20443;SDS011;10381;53.730;10.010;2022-09-01T05:52:33;10.20;;;6.50;;
20443;SDS011;10381;53.730;10.010;2022-09-01T05:56:36;8.85;;;6.30;;
20443;SDS011;10381;53.730;10.010;2022-09-01T06:00:41;8.23;;;6.28;;
20443;SDS011;10381;53.730;10.010;2022-09-01T06:04:48;8.13;;;6.00;;
20443;SDS011;10381;53.730;10.010;2022-09-01T06:08:49;6.95;;;6.05;;
20443;SDS011;10381;53.730;10.010;2022-09-01T06:12:50;8.43;;;5.45;;
20443;SDS011;10381;53.730;10.010;2022-09-01T06:16:52;11.43;;;5.65;;
20443;SDS011;10381;53.730;10.010;2022-09-01T06:20:53;5.90;;;5.07;;
20443;SDS011;10381;53.730;10.010;2022-09-01T06:24:54;7.22;;;5.32;;
20443;SDS011;10381;53.730;10.010;2022-09-01T06:29:00;6.47;;;5.38;;
20443;SDS011;10381;53.730;10.010;2022-09-01T06:33:04;6.95;;;5.43;;
20443;SDS011;10381;53.730;10.010;2022-09-01T06:37:08;8.70;;;5.25;;
20443;SDS011;10381;53.730;10.010;2022-09-01T06:41:10;6.53;;;5.70;;
20443;SDS011;10381;53.730;10.010;2022-09-01T06:45:15;7.00;;;6.25;;
20443;SDS011;10381;53.730;10.010;2022-09-01T06:49:17;7.22;;;5.78;;
20443;SDS011;10381;53.730;10.010;2022-09-01T06:53:20;8.15;;;5.45;;
20443;SDS011;10381;53.730;10.010;2022-09-01T06:57:20;6.60;;;5.23;;
20443;SDS011;10381;53.730;10.010;2022-09-01T07:01:21;8.35;;;5.45;;
20443;SDS011;10381;53.730;10.010;2022-09-01T07:05:23;8.23;;;5.45;;
20443;SDS011;10381;53.730;10.010;2022-09-01T07:09:24;5.18;;;4.78;;
20443;SDS011;10381;53.730;10.010;2022-09-01T07:13:25;4.85;;;4.35;;
20443;SDS011;10381;53.730;10.010;2022-09-01T07:17:26;8.88;;;4.53;;
20443;SDS011;10381;53.730;10.010;2022-09-01T07:21:29;4.35;;;4.05;;
20443;SDS011;10381;53.730;10.010;2022-09-01T07:25:33;6.75;;;4.22;;
20443;SDS011;10381;53.730;10.010;2022-09-01T07:29:37;4.25;;;3.90;;
20443;SDS011;10381;53.730;10.010;2022-09-01T07:33:38;5.97;;;3.67;;
20443;SDS011;10381;53.730;10.010;2022-09-01T07:37:38;4.07;;;3.73;;
20443;SDS011;10381;53.730;10.010;2022-09-01T07:41:39;3.40;;;3.15;;
20443;SDS011;10381;53.730;10.010;2022-09-01T07:45:44;3.13;;;2.92;;
20443;SDS011;10381;53.730;10.010;2022-09-01T07:49:47;3.65;;;3.03;;
20443;SDS011;10381;53.730;10.010;2022-09-01T07:53:48;3.07;;;2.87;;
20443;SDS011;10381;53.730;10.010;2022-09-01T07:57:49;17.48;;;2.72;;
20443;SDS011;10381;53.730;10.010;2022-09-01T08:01:50;2.80;;;2.60;;
20443;SDS011;10381;53.730;10.010;2022-09-01T08:05:51;3.13;;;2.83;;
20443;SDS011;10381;53.730;10.010;2022-09-01T08:09:56;2.65;;;2.50;;
20443;SDS011;10381;53.730;10.010;2022-09-01T08:13:57;2.67;;;2.47;;
20443;SDS011;10381;53.730;10.010;2022-09-01T08:17:59;3.00;;;2.80;;
20443;SDS011;10381;53.730;10.010;2022-09-01T08:22:00;3.33;;;2.95;;
20443;SDS011;10381;53.730;10.010;2022-09-01T08:26:03;2.60;;;2.40;;
20443;SDS011;10381;53.730;10.010;2022-09-01T08:30:06;2.75;;;2.55;;
20443;SDS011;10381;53.730;10.010;2022-09-01T08:34:08;2.88;;;2.67;;
20443;SDS011;10381;53.730;10.010;2022-09-01T08:38:11;2.95;;;2.75;;
20443;SDS011;10381;53.730;10.010;2022-09-01T08:50:26;3.65;;;2.90;;
20443;SDS011;10381;53.730;10.010;2022-09-01T08:58:33;8.52;;;3.05;;
20443;SDS011;10381;53.730;10.010;2022-09-01T09:07:22;2.80;;;2.60;;
20443;SDS011;10381;53.730;10.010;2022-09-01T09:11:45;3.00;;;2.83;;
20443;SDS011;10381;53.730;10.010;2022-09-01T09:16:17;5.38;;;3.00;;
20443;SDS011;10381;53.730;10.010;2022-09-01T09:20:24;3.45;;;3.15;;
20443;SDS011;10381;53.730;10.010;2022-09-01T09:29:00;2.85;;;2.65;;
20443;SDS011;10381;53.730;10.010;2022-09-01T09:33:04;3.00;;;2.80;;
20443;SDS011;10381;53.730;10.010;2022-09-01T09:37:16;3.28;;;2.60;;
20443;SDS011;10381;53.730;10.010;2022-09-01T09:41:20;3.42;;;3.22;;
20443;SDS011;10381;53.730;10.010;2022-09-01T09:45:27;3.10;;;2.90;;
20443;SDS011;10381;53.730;10.010;2022-09-01T09:49:32;3.45;;;3.15;;
20443;SDS011;10381;53.730;10.010;2022-09-01T09:53:34;3.20;;;3.00;;
20443;SDS011;10381;53.730;10.010;2022-09-01T09:57:37;3.13;;;2.92;;
20443;SDS011;10381;53.730;10.010;2022-09-01T10:01:40;3.08;;;2.88;;
20443;SDS011;10381;53.730;10.010;2022-09-01T10:09:47;2.78;;;2.58;;
20443;SDS011;10381;53.730;10.010;2022-09-01T10:13:48;2.70;;;2.50;;
20443;SDS011;10381;53.730;10.010;2022-09-01T10:17:48;3.10;;;2.90;;
20443;SDS011;10381;53.730;10.010;2022-09-01T10:21:51;3.00;;;2.80;;
20443;SDS011;10381;53.730;10.010;2022-09-01T10:25:58;3.05;;;2.85;;
20443;SDS011;10381;53.730;10.010;2022-09-01T10:30:07;2.78;;;2.58;;
20443;SDS011;10381;53.730;10.010;2022-09-01T10:34:15;3.05;;;2.85;;
20443;SDS011;10381;53.730;10.010;2022-09-01T10:38:19;3.28;;;2.75;;
20443;SDS011;10381;53.730;10.010;2022-09-01T10:42:25;10.82;;;2.83;;
20443;SDS011;10381;53.730;10.010;2022-09-01T10:50:30;3.00;;;2.80;;
20443;SDS011;10381;53.730;10.010;2022-09-01T10:54:48;3.00;;;2.78;;
20443;SDS011;10381;53.730;10.010;2022-09-01T11:15:42;3.25;;;3.05;;
20443;SDS011;10381;53.730;10.010;2022-09-01T11:19:45;3.95;;;3.08;;
20443;SDS011;10381;53.730;10.010;2022-09-01T11:28:37;2.80;;;2.60;;
20443;SDS011;10381;53.730;10.010;2022-09-01T11:32:40;3.63;;;3.03;;
20443;SDS011;10381;53.730;10.010;2022-09-01T11:40:43;2.75;;;2.55;;
20443;SDS011;10381;53.730;10.010;2022-09-01T11:45:01;3.30;;;3.10;;
20443;SDS011;10381;53.730;10.010;2022-09-01T11:49:34;3.00;;;2.70;;
20443;SDS011;10381;53.730;10.010;2022-09-01T11:53:36;2.67;;;2.47;;
20443;SDS011;10381;53.730;10.010;2022-09-01T11:57:37;2.70;;;2.50;;
20443;SDS011;10381;53.730;10.010;2022-09-01T12:01:39;5.05;;;2.83;;
20443;SDS011;10381;53.730;10.010;2022-09-01T12:05:41;5.57;;;2.90;;
20443;SDS011;10381;53.730;10.010;2022-09-01T12:09:42;3.00;;;2.70;;
20443;SDS011;10381;53.730;10.010;2022-09-01T12:13:56;3.03;;;2.83;;
20443;SDS011;10381;53.730;10.010;2022-09-01T12:18:08;2.90;;;2.70;;
20443;SDS011;10381;53.730;10.010;2022-09-01T12:22:18;4.78;;;3.00;;
20443;SDS011;10381;53.730;10.010;2022-09-01T12:26:25;3.30;;;3.10;;
20443;SDS011;10381;53.730;10.010;2022-09-01T12:30:28;3.40;;;3.20;;
20443;SDS011;10381;53.730;10.010;2022-09-01T12:34:38;2.95;;;2.75;;
20443;SDS011;10381;53.730;10.010;2022-09-01T12:38:41;3.30;;;3.10;;
20443;SDS011;10381;53.730;10.010;2022-09-01T12:42:48;3.30;;;3.10;;
20443;SDS011;10381;53.730;10.010;2022-09-01T12:46:50;4.15;;;2.88;;
20443;SDS011;10381;53.730;10.010;2022-09-01T12:50:50;3.10;;;2.90;;
20443;SDS011;10381;53.730;10.010;2022-09-01T12:59:11;2.95;;;2.75;;
20443;SDS011;10381;53.730;10.010;2022-09-01T13:03:22;3.00;;;2.80;;
20443;SDS011;10381;53.730;10.010;2022-09-01T13:07:22;2.92;;;2.72;;
20443;SDS011;10381;53.730;10.010;2022-09-01T13:11:23;2.40;;;2.30;;
20443;SDS011;10381;53.730;10.010;2022-09-01T13:15:23;2.57;;;2.47;;
20443;SDS011;10381;53.730;10.010;2022-09-01T13:19:27;2.83;;;2.70;;
20443;SDS011;10381;53.730;10.010;2022-09-01T13:23:27;2.87;;;2.67;;
20443;SDS011;10381;53.730;10.010;2022-09-01T13:27:27;3.17;;;2.80;;
20443;SDS011;10381;53.730;10.010;2022-09-01T13:31:28;3.23;;;3.00;;
20443;SDS011;10381;53.730;10.010;2022-09-01T13:35:30;3.00;;;2.80;;
20443;SDS011;10381;53.730;10.010;2022-09-01T13:39:31;2.92;;;2.72;;
20443;SDS011;10381;53.730;10.010;2022-09-01T13:43:32;3.00;;;2.80;;
20443;SDS011;10381;53.730;10.010;2022-09-01T13:47:33;2.92;;;2.72;;
20443;SDS011;10381;53.730;10.010;2022-09-01T13:51:34;3.27;;;3.07;;
20443;SDS011;10381;53.730;10.010;2022-09-01T13:55:37;3.13;;;2.92;;
20443;SDS011;10381;53.730;10.010;2022-09-01T13:59:39;6.35;;;2.70;;
20443;SDS011;10381;53.730;10.010;2022-09-01T14:03:40;3.00;;;2.47;;
20443;SDS011;10381;53.730;10.010;2022-09-01T14:07:42;2.72;;;2.53;;
20443;SDS011;10381;53.730;10.010;2022-09-01T14:11:43;2.97;;;2.78;;
20443;SDS011;10381;53.730;10.010;2022-09-01T14:15:43;3.45;;;2.60;;
20443;SDS011;10381;53.730;10.010;2022-09-01T14:19:49;3.17;;;2.50;;
20443;SDS011;10381;53.730;10.010;2022-09-01T14:23:50;2.88;;;2.67;;
20443;SDS011;10381;53.730;10.010;2022-09-01T14:27:50;7.18;;;2.53;;
20443;SDS011;10381;53.730;10.010;2022-09-01T14:31:52;3.15;;;2.47;;
20443;SDS011;10381;53.730;10.010;2022-09-01T14:35:54;2.70;;;2.50;;
20443;SDS011;10381;53.730;10.010;2022-09-01T14:39:55;2.57;;;2.37;;
20443;SDS011;10381;53.730;10.010;2022-09-01T14:43:56;2.60;;;2.40;;
20443;SDS011;10381;53.730;10.010;2022-09-01T14:48:03;5.05;;;2.75;;
20443;SDS011;10381;53.730;10.010;2022-09-01T14:52:04;7.85;;;2.40;;
20443;SDS011;10381;53.730;10.010;2022-09-01T14:56:06;2.65;;;2.42;;
20443;SDS011;10381;53.730;10.010;2022-09-01T15:00:07;2.50;;;2.30;;
20443;SDS011;10381;53.730;10.010;2022-09-01T15:04:11;2.22;;;2.03;;
20443;SDS011;10381;53.730;10.010;2022-09-01T15:08:11;2.10;;;2.00;;
20443;SDS011;10381;53.730;10.010;2022-09-01T15:12:11;7.87;;;2.37;;
20443;SDS011;10381;53.730;10.010;2022-09-01T15:16:12;2.50;;;2.30;;
20443;SDS011;10381;53.730;10.010;2022-09-01T15:20:15;2.80;;;2.58;;
20443;SDS011;10381;53.730;10.010;2022-09-01T15:24:34;2.45;;;2.35;;
20443;SDS011;10381;53.730;10.010;2022-09-01T15:28:35;2.33;;;2.20;;
20443;SDS011;10381;53.730;10.010;2022-09-01T15:32:35;9.00;;;2.40;;
20443;SDS011;10381;53.730;10.010;2022-09-01T15:36:36;2.47;;;2.37;;
20443;SDS011;10381;53.730;10.010;2022-09-01T15:40:43;2.90;;;2.25;;
20443;SDS011;10381;53.730;10.010;2022-09-01T15:44:44;2.85;;;2.58;;
20443;SDS011;10381;53.730;10.010;2022-09-01T15:48:46;2.67;;;2.47;;
20443;SDS011;10381;53.730;10.010;2022-09-01T15:56:48;2.25;;;2.10;;
20443;SDS011;10381;53.730;10.010;2022-09-01T16:00:49;2.47;;;2.27;;
20443;SDS011;10381;53.730;10.010;2022-09-01T16:04:50;7.38;;;2.10;;
20443;SDS011;10381;53.730;10.010;2022-09-01T16:08:50;2.30;;;2.20;;
20443;SDS011;10381;53.730;10.010;2022-09-01T16:12:53;1.73;;;1.63;;
20443;SDS011;10381;53.730;10.010;2022-09-01T16:17:13;15.40;;;1.65;;
20443;SDS011;10381;53.730;10.010;2022-09-01T16:21:21;1.80;;;1.70;;
20443;SDS011;10381;53.730;10.010;2022-09-01T16:25:30;1.80;;;1.70;;
20443;SDS011;10381;53.730;10.010;2022-09-01T16:34:07;1.65;;;1.55;;
20443;SDS011;10381;53.730;10.010;2022-09-01T16:47:56;2.08;;;1.98;;
20443;SDS011;10381;53.730;10.010;2022-09-01T16:56:13;2.58;;;2.38;;
20443;SDS011;10381;53.730;10.010;2022-09-01T17:00:24;2.13;;;2.03;;
20443;SDS011;10381;53.730;10.010;2022-09-01T17:04:41;2.75;;;2.55;;
20443;SDS011;10381;53.730;10.010;2022-09-01T17:09:29;5.80;;;2.30;;
20443;SDS011;10381;53.730;10.010;2022-09-01T17:13:18;2.47;;;2.33;;
20443;SDS011;10381;53.730;10.010;2022-09-01T17:17:32;2.40;;;2.20;;
20443;SDS011;10381;53.730;10.010;2022-09-01T17:21:42;9.65;;;2.13;;
20443;SDS011;10381;53.730;10.010;2022-09-01T17:25:57;2.00;;;1.90;;
20443;SDS011;10381;53.730;10.010;2022-09-01T17:30:02;6.85;;;2.30;;
20443;SDS011;10381;53.730;10.010;2022-09-01T17:38:43;2.10;;;2.00;;
20443;SDS011;10381;53.730;10.010;2022-09-01T17:47:29;1.90;;;1.80;;
20443;SDS011;10381;53.730;10.010;2022-09-01T18:00:03;2.33;;;2.13;;
20443;SDS011;10381;53.730;10.010;2022-09-01T18:08:28;2.20;;;2.00;;
20443;SDS011;10381;53.730;10.010;2022-09-01T18:12:37;16.50;;;2.20;;
20443;SDS011;10381;53.730;10.010;2022-09-01T18:16:42;2.03;;;1.83;;
20443;SDS011;10381;53.730;10.010;2022-09-01T18:20:46;2.05;;;1.92;;
20443;SDS011;10381;53.730;10.010;2022-09-01T18:24:57;2.25;;;2.00;;
20443;SDS011;10381;53.730;10.010;2022-09-01T18:29:03;2.53;;;1.90;;
20443;SDS011;10381;53.730;10.010;2022-09-01T18:33:07;2.45;;;1.70;;
20443;SDS011;10381;53.730;10.010;2022-09-01T18:37:33;1.48;;;1.38;;
20443;SDS011;10381;53.730;10.010;2022-09-01T18:46:06;1.50;;;1.40;;
20443;SDS011;10381;53.730;10.010;2022-09-01T18:50:22;1.80;;;1.70;;
20443;SDS011;10381;53.730;10.010;2022-09-01T18:54:40;1.92;;;1.63;;
20443;SDS011;10381;53.730;10.010;2022-09-01T19:03:17;15.68;;;1.50;;
20443;SDS011;10381;53.730;10.010;2022-09-01T19:07:43;1.40;;;1.30;;
20443;SDS011;10381;53.730;10.010;2022-09-01T19:16:17;4.72;;;1.27;;
20443;SDS011;10381;53.730;10.010;2022-09-01T19:20:26;2.45;;;1.63;;
20443;SDS011;10381;53.730;10.010;2022-09-01T19:24:39;1.63;;;1.52;;
20443;SDS011;10381;53.730;10.010;2022-09-01T19:28:51;4.32;;;1.23;;
20443;SDS011;10381;53.730;10.010;2022-09-01T19:33:02;1.70;;;1.52;;
20443;SDS011;10381;53.730;10.010;2022-09-01T19:37:04;2.17;;;1.70;;
20443;SDS011;10381;53.730;10.010;2022-09-01T19:41:11;3.95;;;1.70;;
20443;SDS011;10381;53.730;10.010;2022-09-01T19:45:25;3.30;;;1.50;;
20443;SDS011;10381;53.730;10.010;2022-09-01T19:49:47;2.00;;;1.42;;
20443;SDS011;10381;53.730;10.010;2022-09-01T19:58:34;4.05;;;1.98;;
20443;SDS011;10381;53.730;10.010;2022-09-01T20:02:50;1.60;;;1.40;;
20443;SDS011;10381;53.730;10.010;2022-09-01T20:07:02;4.40;;;1.77;;
20443;SDS011;10381;53.730;10.010;2022-09-01T20:11:28;2.10;;;1.88;;
20443;SDS011;10381;53.730;10.010;2022-09-01T20:24:10;2.03;;;1.92;;
20443;SDS011;10381;53.730;10.010;2022-09-01T20:32:44;3.20;;;2.90;;
20443;SDS011;10381;53.730;10.010;2022-09-01T20:36:55;12.20;;;2.60;;
20443;SDS011;10381;53.730;10.010;2022-09-01T20:41:04;2.97;;;2.78;;
20443;SDS011;10381;53.730;10.010;2022-09-01T20:45:20;3.10;;;2.80;;
20443;SDS011;10381;53.730;10.010;2022-09-01T20:49:23;3.42;;;3.13;;
20443;SDS011;10381;53.730;10.010;2022-09-01T20:57:43;5.72;;;4.15;;
20443;SDS011;10381;53.730;10.010;2022-09-01T21:01:55;6.22;;;4.05;;
20443;SDS011;10381;53.730;10.010;2022-09-01T21:06:06;4.65;;;4.07;;
20443;SDS011;10381;53.730;10.010;2022-09-01T21:14:47;4.10;;;3.70;;
20443;SDS011;10381;53.730;10.010;2022-09-01T21:23:05;4.13;;;3.72;;
20443;SDS011;10381;53.730;10.010;2022-09-01T21:27:07;4.20;;;3.90;;
20443;SDS011;10381;53.730;10.010;2022-09-01T21:31:11;4.60;;;4.18;;
20443;SDS011;10381;53.730;10.010;2022-09-01T21:35:13;4.50;;;4.20;;
20443;SDS011;10381;53.730;10.010;2022-09-01T21:39:15;4.45;;;4.15;;
20443;SDS011;10381;53.730;10.010;2022-09-01T21:43:18;4.20;;;3.83;;
20443;SDS011;10381;53.730;10.010;2022-09-01T21:47:24;4.15;;;3.85;;
20443;SDS011;10381;53.730;10.010;2022-09-01T21:51:25;4.40;;;4.00;;
20443;SDS011;10381;53.730;10.010;2022-09-01T21:55:26;4.38;;;4.07;;
20443;SDS011;10381;53.730;10.010;2022-09-01T21:59:27;4.63;;;4.22;;
20443;SDS011;10381;53.730;10.010;2022-09-01T22:03:27;4.95;;;4.55;;
20443;SDS011;10381;53.730;10.010;2022-09-01T22:07:27;6.22;;;4.30;;
20443;SDS011;10381;53.730;10.010;2022-09-01T22:11:29;6.28;;;4.93;;
20443;SDS011;10381;53.730;10.010;2022-09-01T22:15:31;4.82;;;4.43;;
20443;SDS011;10381;53.730;10.010;2022-09-01T22:19:32;4.35;;;4.05;;
20443;SDS011;10381;53.730;10.010;2022-09-01T22:23:33;4.82;;;4.05;;
20443;SDS011;10381;53.730;10.010;2022-09-01T22:27:34;6.50;;;4.13;;
20443;SDS011;10381;53.730;10.010;2022-09-01T22:31:35;6.15;;;4.60;;
20443;SDS011;10381;53.730;10.010;2022-09-01T22:35:41;7.60;;;4.72;;
20443;SDS011;10381;53.730;10.010;2022-09-01T22:39:45;6.50;;;5.30;;
20443;SDS011;10381;53.730;10.010;2022-09-01T22:43:46;5.40;;;4.88;;
20443;SDS011;10381;53.730;10.010;2022-09-01T22:47:47;5.63;;;5.00;;
20443;SDS011;10381;53.730;10.010;2022-09-01T22:51:47;5.57;;;5.10;;
20443;SDS011;10381;53.730;10.010;2022-09-01T22:55:48;5.28;;;4.78;;
20443;SDS011;10381;53.730;10.010;2022-09-01T22:59:50;5.30;;;4.82;;
20443;SDS011;10381;53.730;10.010;2022-09-01T23:03:51;5.13;;;4.73;;
20443;SDS011;10381;53.730;10.010;2022-09-01T23:07:52;4.93;;;4.53;;
20443;SDS011;10381;53.730;10.010;2022-09-01T23:11:52;5.43;;;5.03;;
20443;SDS011;10381;53.730;10.010;2022-09-01T23:15:54;5.18;;;4.78;;
20443;SDS011;10381;53.730;10.010;2022-09-01T23:19:55;5.00;;;4.60;;
20443;SDS011;10381;53.730;10.010;2022-09-01T23:23:58;5.90;;;5.35;;
20443;SDS011;10381;53.730;10.010;2022-09-01T23:27:58;6.20;;;5.60;;
20443;SDS011;10381;53.730;10.010;2022-09-01T23:31:59;6.30;;;5.73;;
20443;SDS011;10381;53.730;10.010;2022-09-01T23:35:59;7.70;;;5.50;;
20443;SDS011;10381;53.730;10.010;2022-09-01T23:39:59;12.40;;;5.87;;
20443;SDS011;10381;53.730;10.010;2022-09-01T23:44:00;10.25;;;6.25;;
20443;SDS011;10381;53.730;10.010;2022-09-01T23:48:03;6.43;;;5.82;;
20443;SDS011;10381;53.730;10.010;2022-09-01T23:52:04;6.32;;;5.82;;
20443;SDS011;10381;53.730;10.010;2022-09-01T23:56:14;7.43;;;6.45;;
